Adele Island, Australia
Current Conditions -  °F | °C
As of 2:30 AM on Sunday 26 Oct 2014 (Local Time) from YCIN Reporting Station
Clear Clear  
Wind Chill: 73°   Ceiling: Unl
Heat Index: 73°   Visibility: NA
Dew Point: 68°   Wind: 6mph
Humidity: 83%   Direction: 40°NE
Pressure: 29.83"   Gusts: NA
Location:  15.5°S, 123.15°E
Report Text: YCIN 251830Z AUTO 04005KT //// // NCD 23/20 Q1010
Loading
Personal Weather Stations






























Interactive Weather Map
Tropical Storm Tracking
New forecast layout! Learn more

10-Day Weather Forecast

Advertisements
Track Severe Weather on mobile